Terminal Aerodrome Forecast
Issued by NWS

Home | Current Version | Previous Version | Text Only | Print | Product List | Glossary On
Versions: 1 2 3 4 5 6 7 8 9 10 11 12 13 14
207
FTUS43 KMQT 251732
TAFCMX
TAF
KCMX 251732Z 2518/2618 14009KT 4SM -SHRA BR OVC015
     FM251900 16009KT 4SM -SHRA BR SCT008 OVC015
      TEMPO 2519/2522 BKN008
     FM252200 18009KT 5SM BR VCSH OVC010
     FM260000 21006KT P6SM OVC035
     FM260500 25010G20KT P6SM VCSH OVC025
     FM261200 24010G17KT 6SM -SHRA OVC015
     FM261600 27018G31KT 6SM -SHRA OVC010=

USA.gov is the U.S. government's official web portal to all federal, state and local government web resources and services.